Nome, AK

9:11 AM AKDT on July 06, 2015 (GMT -0800)
Dexter | | Change Station
CLOSE
Current Station
Personal Weather Station
Location: Nome, AK
Elevation: 45 ft
Nearby Weather Stations

Elev 45 ft 64.58 °N, 165.27 °W | Updated 1 minute ago

Overcast
Overcast
60.7 °F
Feels Like 60.7 °F
N
2.0
Wind Variable Wind from South
Gusts 2.0 mph

Today
High -- | Low -- °F
--% Chance of Precip.
Yesterday
High -- | Low -- °F
Precip. -- in
4:40 AM 1:29 AM
Waning Gibbous, 74% visible
Pressure 29.82 in
Visibility 10.0 miles
Clouds Few 1000 ft
Mostly Cloudy 3500 ft
Overcast 20000 ft
Dew Point 61 °F
Humidity 100%
Rainfall 0.02 in
Snow Depth Not available.
UV 0 out of 12
Pollen Not available.
Air Quality Not available.
Flu Activity Not available.
METAR PAOM 061653Z 06006KT 10SM FEW010 BKN035 OVC200 16/16 A2982 RMK RAE02 SLP097 FU ALQDS P0000 T01610161 VIA AUTODIAL

More Conditions Fewer Conditions

Pressure 29.82 in
Visibility 10.0 miles
Clouds Few 1000 ft
Mostly Cloudy 3500 ft
Overcast 20000 ft
Dew Point 61 °F
Humidity 100%
Rainfall 0.02 in
Snow Depth Not available.
UV 0 out of 12
Pollen Not available.
Air Quality Not available.
Flu Activity Not available.
METAR PAOM 061653Z 06006KT 10SM FEW010 BKN035 OVC200 16/16 A2982 RMK RAE02 SLP097 FU ALQDS P0000 T01610161 VIA AUTODIAL

More Conditions Fewer Conditions

10-Day Weather Forecast

×

Almanac

Astronomy

Jul. 06, 2015 Rise Set
Actual Time
Civil Twilight
Nautical Twilight
Astronomical Twilight
Moon
Length of Visible Light
Length of Day
Tomorrow will be .
, % of the Moon is Illuminated

Today's Extremes

State Highs State Lows

Community

WunderPhotos

Upload Photos

1,835,604 photos uploaded!

WunderBlogs® & News

Nearby

Air Quality

  Air Quality AQ Index Pollutant
Not available.

Snow Depth

Station Depth Elevation

Earthquake Activity

City Distance Mag. Time & Date
Minimum magnitude displayed is 2.5.

Coastal Water Temperatures

Place Temperature

Stations

Nearby Weather Stations

Station Location Temp. Windchill Dew Point Humidity Wind Precip. Elev Updated Type